Airfield :
LOGIN :

Register | Disclaimer

   EN    FR    IT 

 










Legend :    VFR   Marginal VFR   IFR   Intensive IFR   Very Intensive IFR
Visi :
Ceiling :
>= 8 km
>= 3000ft
5 to 8 km
1000 to 3000 ft
1500m to 5 km
500 to 1000 ft
800 to 1500m
200 to 500 ft
< 800m
< 200 ft
Symbols :   Thunderstorms  Fog  Heavy snow  Heavy precipitations  Wind > 20 kt
SIGMETs :     Misc.  Thunderstorms  Icing  Turbulence  Mountain Waves  Volcanic Ashes






- Airport Elevation : 485 ft
- IATA code : QSA


LELL - Sabadell

CURRENT METAR :
  • 150830Z 28011KT 230V320 CAVOK 17/07 Q1014 WS R31

EXPIRED METARs :
  • 150800Z 28008KT 240V330 CAVOK 16/07 Q1014
  • 150730Z 27007KT 230V300 CAVOK 15/08 Q1013
  • 150700Z 28002KT CAVOK 14/08 Q1013
  • 150630Z 21002KT CAVOK 14/08 Q1013
  • 150600Z 28004KT CAVOK 14/08 Q1012

TAF TAF LELL
Valid from the 15 at 09:00 until the 16 at 09:00 UTC


150800Z 1509/1609 29010KT 9999 FEW030 TX23/1513Z TN10/1606Z
BECMG 1515/1517 VRB04KT



MET'MAP, your aeronautical weather chart ! - Copyright ORBIFLY December 2007 - Disclaimer

ORBIFLY MET'MAP TEAM :

Programming & Development : Alexandra Zaïnal
Concept & Development : Baudouin d'Aumeries
Co-Development & Prog : Marc-Olivier Méhu
Technical & hardware support : Manuel Goepfert

Contact : metmap@orbifly.com




SOURCES & CREDITS :

   NOAA